Time;durP1;ratioP1;P1;durP2;ratioP2;P2;SDS_P1;SDS_P2;PMS_P1;PMS_P2;Temp;Humidity;BMP_temperature;BMP_pressure;BME280_temperature;BME280_humidity;BME280_pressure;Samples;Min_cycle;Max_cycle;Signal;HPM_P1;HPM_P2
2022/08/14 00:00:25;;;;;;;;;;;21.70;99.90;;;;;;5056466;28;20467;-79
2022/08/14 00:02:51;;;;;;;;;;;21.70;99.90;;;;;;5063669;28;19932;-84
2022/08/14 00:05:19;;;;;;;;;;;21.70;99.90;;;;;;5067993;28;19951;-80
2022/08/14 00:07:45;;;;;;;;;;;21.60;99.90;;;;;;5062018;28;19929;-83
2022/08/14 00:10:14;;;;;;;;;;;21.60;99.90;;;;;;5030628;28;19963;-82
2022/08/14 00:12:44;;;;;;;;;;;21.60;99.90;;;;;;5029517;28;19948;-80
2022/08/14 00:15:12;;;;;;;;;;;21.60;99.90;;;;;;5035263;28;19935;-80
2022/08/14 00:17:38;;;;;;;;;;;21.60;99.90;;;;;;5040220;28;20487;-83
2022/08/14 00:20:06;;;;;;;;;;;21.60;99.90;;;;;;5029642;28;20003;-85
2022/08/14 00:22:31;;;;;;;;;;;21.60;99.90;;;;;;5024144;28;19929;-82
2022/08/14 00:25:00;;;;;;;;;;;21.30;99.90;;;;;;5012875;28;19979;-82
2022/08/14 00:27:26;;;;;;;;;;;21.60;99.90;;;;;;5018069;28;19960;-80
2022/08/14 00:29:52;;;;;;;;;;;21.50;99.90;;;;;;5034334;28;19967;-83
2022/08/14 00:32:18;;;;;;;;;;;21.50;99.90;;;;;;5012739;28;19936;-80
2022/08/14 00:34:44;;;;;;;;;;;21.50;99.90;;;;;;5020712;28;19925;-79
2022/08/14 00:37:10;;;;;;;;;;;21.50;99.90;;;;;;5025163;28;19933;-81
2022/08/14 00:39:36;;;;;;;;;;;21.40;99.90;;;;;;5000603;28;20412;-82
2022/08/14 00:42:02;;;;;;;;;;;21.40;99.90;;;;;;4996982;28;19936;-82
2022/08/14 00:44:29;;;;;;;;;;;21.40;99.90;;;;;;5029143;28;20647;-80
2022/08/14 00:46:54;;;;;;;;;;;21.40;99.90;;;;;;5032072;28;20059;-81
2022/08/14 00:49:21;;;;;;;;;;;21.40;99.90;;;;;;5016826;28;20011;-82
2022/08/14 00:51:47;;;;;;;;;;;21.30;99.90;;;;;;5032777;28;19925;-83
2022/08/14 00:54:15;;;;;;;;;;;21.30;99.90;;;;;;5009306;28;21344;-80
2022/08/14 00:56:41;;;;;;;;;;;21.30;99.90;;;;;;5029183;28;19925;-82
2022/08/14 00:59:08;;;;;;;;;;;21.30;99.90;;;;;;4995497;28;19998;-84
2022/08/14 01:01:35;;;;;;;;;;;21.30;99.90;;;;;;5012382;28;19932;-84
2022/08/14 01:04:03;;;;;;;;;;;21.30;99.90;;;;;;4997207;28;19928;-87
2022/08/14 01:06:30;;;;;;;;;;;21.20;99.90;;;;;;5019485;28;20055;-80
2022/08/14 01:08:57;;;;;;;;;;;21.20;99.90;;;;;;5035346;28;19935;-83
2022/08/14 01:11:23;;;;;;;;;;;21.20;99.90;;;;;;5025630;28;19932;-81
2022/08/14 01:13:49;;;;;;;;;;;21.20;99.90;;;;;;5049777;28;19978;-80
2022/08/14 01:16:16;;;;;;;;;;;21.20;99.90;;;;;;5051241;28;19962;-81
2022/08/14 01:21:40;;;;;;;;;;;21.10;99.90;;;;;;5065524;28;19932;-80
2022/08/14 01:24:14;;;;;;;;;;;21.10;99.90;;;;;;5069002;28;20034;-81
2022/08/14 01:26:41;;;;;;;;;;;21.10;99.90;;;;;;5064631;28;20021;-80
2022/08/14 01:29:07;;;;;;;;;;;21.10;99.90;;;;;;5062474;28;19924;-82
2022/08/14 01:31:38;;;;;;;;;;;21.10;99.90;;;;;;5070770;28;19931;-80
2022/08/14 01:34:06;;;;;;;;;;;21.20;99.90;;;;;;5068422;28;19971;-81
2022/08/14 01:36:35;;;;;;;;;;;21.10;99.90;;;;;;5068627;28;20390;-84
2022/08/14 01:39:01;;;;;;;;;;;21.10;99.90;;;;;;5078791;28;19924;-85
2022/08/14 01:41:27;;;;;;;;;;;21.10;99.90;;;;;;5069493;28;19925;-83
2022/08/14 01:43:54;;;;;;;;;;;21.10;99.90;;;;;;5061226;28;19927;-83
2022/08/14 01:46:21;;;;;;;;;;;21.10;99.90;;;;;;5068807;28;20777;-81
2022/08/14 01:48:47;;;;;;;;;;;21.10;99.90;;;;;;5064162;28;19974;-82
2022/08/14 01:51:16;;;;;;;;;;;21.10;99.90;;;;;;5054402;28;20324;-81
2022/08/14 01:53:45;;;;;;;;;;;21.10;99.90;;;;;;5055880;28;20294;-78
2022/08/14 01:56:11;;;;;;;;;;;21.10;99.90;;;;;;5054963;28;20557;-80
2022/08/14 01:58:37;;;;;;;;;;;21.10;99.90;;;;;;5054233;28;19977;-83
2022/08/14 02:01:03;;;;;;;;;;;21.00;99.90;;;;;;5043179;28;20014;-83
2022/08/14 02:03:31;;;;;;;;;;;21.00;99.90;;;;;;5067122;28;19955;-83
2022/08/14 02:11:49;;;;;;;;;;;20.90;99.90;;;;;;5108120;22;19931;-81
2022/08/14 02:14:16;;;;;;;;;;;20.90;99.90;;;;;;5067251;28;19974;-81
2022/08/14 02:16:47;;;;;;;;;;;20.90;99.90;;;;;;5073970;28;20015;-81
2022/08/14 02:19:14;;;;;;;;;;;20.90;99.90;;;;;;5052762;28;19959;-82
2022/08/14 02:21:42;;;;;;;;;;;20.80;99.90;;;;;;5050243;28;19939;-79
2022/08/14 02:24:08;;;;;;;;;;;20.90;99.90;;;;;;5046850;28;19954;-82
2022/08/14 02:26:35;;;;;;;;;;;20.80;99.90;;;;;;5071454;28;19951;-78
2022/08/14 02:29:10;;;;;;;;;;;20.80;99.90;;;;;;5047756;28;20593;-82
2022/08/14 02:31:37;;;;;;;;;;;20.80;99.90;;;;;;5049743;28;20460;-80
2022/08/14 02:34:08;;;;;;;;;;;20.80;99.90;;;;;;5056981;28;19924;-82
2022/08/14 02:36:34;;;;;;;;;;;20.80;99.90;;;;;;5044670;28;19924;-82
2022/08/14 02:38:59;;;;;;;;;;;20.80;99.90;;;;;;5038060;28;20413;-81
2022/08/14 02:41:28;;;;;;;;;;;20.80;99.90;;;;;;5056059;28;19950;-81
2022/08/14 02:43:54;;;;;;;;;;;20.80;99.90;;;;;;5049515;28;19928;-81
2022/08/14 02:46:21;;;;;;;;;;;20.80;99.90;;;;;;5037539;28;19928;-82
2022/08/14 02:48:47;;;;;;;;;;;20.80;99.90;;;;;;5054576;28;19935;-81
2022/08/14 02:51:13;;;;;;;;;;;20.80;99.90;;;;;;5051362;28;20293;-81
2022/08/14 02:53:40;;;;;;;;;;;20.70;99.90;;;;;;5038379;28;19959;-82
2022/08/14 02:56:09;;;;;;;;;;;20.70;99.90;;;;;;5072615;28;19950;-81
2022/08/14 02:58:38;;;;;;;;;;;20.70;99.90;;;;;;5070717;28;19932;-80
2022/08/14 03:01:07;;;;;;;;;;;20.60;99.90;;;;;;5078583;28;19997;-81
2022/08/14 03:03:35;;;;;;;;;;;20.60;99.90;;;;;;5069789;28;19993;-85
2022/08/14 03:06:01;;;;;;;;;;;20.60;99.90;;;;;;5038609;28;20010;-82
2022/08/14 03:08:32;;;;;;;;;;;20.50;99.90;;;;;;5049406;28;19943;-80
2022/08/14 03:11:05;;;;;;;;;;;20.50;99.90;;;;;;5062686;28;20341;-81
2022/08/14 03:13:33;;;;;;;;;;;20.40;99.90;;;;;;5058319;28;19928;-81
2022/08/14 03:15:59;;;;;;;;;;;20.40;99.90;;;;;;5037740;28;20003;-80
2022/08/14 03:18:26;;;;;;;;;;;20.40;99.90;;;;;;5054380;28;20008;-81
2022/08/14 03:20:52;;;;;;;;;;;20.40;99.90;;;;;;5063452;28;19923;-82
2022/08/14 03:23:18;;;;;;;;;;;20.40;99.90;;;;;;5054365;28;19946;-80
2022/08/14 03:25:48;;;;;;;;;;;20.30;99.90;;;;;;5055483;28;20415;-88
2022/08/14 03:28:14;;;;;;;;;;;20.40;99.90;;;;;;5056322;28;19924;-82
2022/08/14 03:30:40;;;;;;;;;;;20.40;99.90;;;;;;5055049;28;20085;-87
2022/08/14 03:33:07;;;;;;;;;;;20.40;99.90;;;;;;5072012;28;19932;-83
2022/08/14 03:35:33;;;;;;;;;;;20.40;99.90;;;;;;5072687;28;19973;-82
2022/08/14 03:38:09;;;;;;;;;;;20.40;99.90;;;;;;5073496;28;20518;-82
2022/08/14 03:40:37;;;;;;;;;;;20.40;99.90;;;;;;5053983;28;20082;-83
2022/08/14 03:43:07;;;;;;;;;;;20.40;99.90;;;;;;5053561;28;19971;-81
2022/08/14 03:45:34;;;;;;;;;;;20.40;99.90;;;;;;5059117;28;20097;-82
2022/08/14 03:48:21;;;;;;;;;;;20.40;99.90;;;;;;5356712;22;19928;-85
2022/08/14 03:50:48;;;;;;;;;;;20.40;99.90;;;;;;5097112;27;19924;-81
2022/08/14 03:53:18;;;;;;;;;;;20.40;99.90;;;;;;5101859;27;19930;-84
2022/08/14 03:55:57;;;;;;;;;;;20.50;99.90;;;;;;5095025;28;19961;-82
2022/08/14 03:58:32;;;;;;;;;;;20.40;99.90;;;;;;5108440;27;20551;-82
2022/08/14 04:01:08;;;;;;;;;;;20.50;99.90;;;;;;5116342;27;20337;-86
2022/08/14 04:03:45;;;;;;;;;;;20.50;99.90;;;;;;5104686;28;19924;-84
2022/08/14 04:06:11;;;;;;;;;;;20.50;99.90;;;;;;5105877;27;19938;-81
2022/08/14 04:08:37;;;;;;;;;;;20.50;99.90;;;;;;5108719;28;20128;-80
2022/08/14 04:11:04;;;;;;;;;;;20.50;99.90;;;;;;5088520;27;19972;-82
2022/08/14 04:13:31;;;;;;;;;;;20.50;99.90;;;;;;5093658;27;20026;-82
2022/08/14 04:15:57;;;;;;;;;;;20.50;99.90;;;;;;5095745;27;19924;-82
2022/08/14 04:18:22;;;;;;;;;;;20.50;99.90;;;;;;5069494;28;19928;-83
2022/08/14 04:20:48;;;;;;;;;;;20.50;99.90;;;;;;5091004;27;20203;-81
2022/08/14 04:23:15;;;;;;;;;;;20.50;99.90;;;;;;5089995;27;19924;-81
2022/08/14 04:25:41;;;;;;;;;;;20.50;99.90;;;;;;5102692;27;19928;-82
2022/08/14 04:28:10;;;;;;;;;;;20.50;99.90;;;;;;5108072;27;19989;-81
2022/08/14 04:30:38;;;;;;;;;;;20.50;99.90;;;;;;5089436;27;19985;-80
2022/08/14 04:33:10;;;;;;;;;;;20.50;99.90;;;;;;5076936;27;19934;-81
2022/08/14 04:35:37;;;;;;;;;;;20.50;99.90;;;;;;5103988;27;20242;-81
2022/08/14 04:43:41;;;;;;;;;;;20.40;99.90;;;;;;5121407;27;20006;-81
2022/08/14 04:46:08;;;;;;;;;;;20.40;99.90;;;;;;5108998;27;19927;-86
2022/08/14 04:48:34;;;;;;;;;;;20.30;99.90;;;;;;5108707;27;20002;-83
2022/08/14 04:51:03;;;;;;;;;;;20.20;99.90;;;;;;5110507;27;19927;-85
2022/08/14 04:53:29;;;;;;;;;;;20.30;99.90;;;;;;5125877;27;19935;-82
2022/08/14 04:59:15;;;;;;;;;;;19.80;99.90;;;;;;5110230;27;19971;-81
2022/08/14 05:01:57;;;;;;;;;;;20.20;99.90;;;;;;5105667;27;20401;-83
2022/08/14 05:04:41;;;;;;;;;;;20.20;99.90;;;;;;5071196;28;20489;-81
2022/08/14 05:07:07;;;;;;;;;;;20.20;99.90;;;;;;5067936;28;19932;-80
2022/08/14 05:09:36;;;;;;;;;;;20.20;99.90;;;;;;5067112;28;20510;-80
2022/08/14 05:12:06;;;;;;;;;;;20.20;99.90;;;;;;5041181;28;19924;-81
2022/08/14 05:14:49;;;;;;;;;;;20.30;99.90;;;;;;5056140;28;19997;-78
2022/08/14 05:17:15;;;;;;;;;;;20.30;99.90;;;;;;5050562;28;19924;-79
2022/08/14 05:19:43;;;;;;;;;;;20.30;99.90;;;;;;5042767;28;20374;-80
2022/08/14 05:22:09;;;;;;;;;;;20.30;99.90;;;;;;5065423;28;19924;-81
2022/08/14 05:24:34;;;;;;;;;;;20.20;99.90;;;;;;5066884;28;19924;-80
2022/08/14 05:27:02;;;;;;;;;;;20.30;99.90;;;;;;5038878;28;20238;-80
2022/08/14 05:29:30;;;;;;;;;;;20.20;99.90;;;;;;5049468;28;19928;-81
2022/08/14 05:31:55;;;;;;;;;;;20.20;99.90;;;;;;5066684;28;20280;-81
2022/08/14 05:34:22;;;;;;;;;;;20.30;99.90;;;;;;5042288;28;19974;-78
2022/08/14 05:36:52;;;;;;;;;;;20.30;99.90;;;;;;5095552;28;20301;-83
2022/08/14 05:39:18;;;;;;;;;;;20.30;99.90;;;;;;5083498;28;19972;-80
2022/08/14 05:41:44;;;;;;;;;;;20.40;99.90;;;;;;5094274;28;19927;-80
2022/08/14 05:44:11;;;;;;;;;;;20.50;99.90;;;;;;5090065;28;20118;-82
2022/08/14 05:46:38;;;;;;;;;;;20.50;99.90;;;;;;5089175;28;20045;-81
2022/08/14 05:49:04;;;;;;;;;;;20.50;99.90;;;;;;5070400;28;20297;-81
2022/08/14 05:51:33;;;;;;;;;;;20.50;99.90;;;;;;5076269;27;20070;-84
2022/08/14 05:54:02;;;;;;;;;;;20.60;99.90;;;;;;5117697;28;19928;-82
2022/08/14 05:56:28;;;;;;;;;;;20.70;99.90;;;;;;5089186;28;19972;-83
2022/08/14 05:58:54;;;;;;;;;;;20.70;99.90;;;;;;5084055;28;20440;-81
2022/08/14 06:01:22;;;;;;;;;;;20.80;99.90;;;;;;5075056;28;19930;-90
2022/08/14 06:03:49;;;;;;;;;;;20.90;99.90;;;;;;5085316;28;19971;-80
2022/08/14 06:06:18;;;;;;;;;;;20.90;99.90;;;;;;5092259;28;19923;-84
2022/08/14 06:08:43;;;;;;;;;;;21.00;99.90;;;;;;5068526;28;20072;-80
2022/08/14 06:11:09;;;;;;;;;;;21.10;99.90;;;;;;5090416;28;20418;-82
2022/08/14 06:13:37;;;;;;;;;;;21.20;99.90;;;;;;5075842;28;20206;-82
2022/08/14 06:16:03;;;;;;;;;;;21.30;99.90;;;;;;5096825;28;19931;-82
2022/08/14 06:18:29;;;;;;;;;;;21.40;99.90;;;;;;5111026;28;19931;-80
2022/08/14 06:20:54;;;;;;;;;;;21.50;99.90;;;;;;5111306;28;19924;-85
2022/08/14 06:23:23;;;;;;;;;;;21.60;99.90;;;;;;5092089;27;20387;-82
2022/08/14 06:25:49;;;;;;;;;;;21.70;99.90;;;;;;5097620;28;19946;-81
2022/08/14 06:28:24;;;;;;;;;;;21.80;99.90;;;;;;5113523;27;19923;-80
2022/08/14 06:30:50;;;;;;;;;;;22.00;99.90;;;;;;5115920;27;19923;-82
2022/08/14 06:33:19;;;;;;;;;;;22.10;99.90;;;;;;5109910;27;19932;-82
2022/08/14 06:35:48;;;;;;;;;;;22.20;99.90;;;;;;5123880;27;19973;-79
2022/08/14 06:38:26;;;;;;;;;;;22.30;99.90;;;;;;5108226;27;19927;-79
2022/08/14 06:47:10;;;;;;;;;;;22.60;99.90;;;;;;5038260;28;20004;-81
2022/08/14 06:49:58;;;;;;;;;;;22.70;99.90;;;;;;5069911;28;20354;-83
2022/08/14 06:52:42;;;;;;;;;;;22.70;99.90;;;;;;5052798;28;20031;-85
2022/08/14 06:55:21;;;;;;;;;;;23.20;99.90;;;;;;5036829;28;19925;-84
2022/08/14 06:57:57;;;;;;;;;;;;;;;;;;5017661;28;19944;-82
2022/08/14 07:07:05;;;;;;;;;;;23.90;99.90;;;;;;5092650;28;20321;-82
2022/08/14 07:09:35;;;;;;;;;;;23.50;99.90;;;;;;5079625;28;20404;-85
2022/08/14 07:12:15;;;;;;;;;;;24.10;99.90;;;;;;5064868;28;19977;-80
2022/08/14 07:14:42;;;;;;;;;;;24.50;99.90;;;;;;5082760;28;19928;-85
2022/08/14 07:17:08;;;;;;;;;;;24.70;99.90;;;;;;5066891;28;19947;-81
2022/08/14 07:19:33;;;;;;;;;;;25.20;99.90;;;;;;5086928;28;19924;-80
2022/08/14 07:21:59;;;;;;;;;;;25.70;99.90;;;;;;5070426;28;19970;-83
2022/08/14 07:24:26;;;;;;;;;;;26.20;99.90;;;;;;5053576;28;19936;-80
2022/08/14 07:26:52;;;;;;;;;;;27.00;99.90;;;;;;5065613;28;20394;-85
2022/08/14 07:29:17;;;;;;;;;;;27.70;99.90;;;;;;5048210;28;20078;-84
2022/08/14 07:31:43;;;;;;;;;;;28.30;99.90;;;;;;5075532;28;19924;-82
2022/08/14 07:34:12;;;;;;;;;;;28.90;99.90;;;;;;5072252;28;20423;-81
2022/08/14 07:36:38;;;;;;;;;;;29.40;99.90;;;;;;5052329;28;20065;-81
2022/08/14 07:39:07;;;;;;;;;;;29.60;98.30;;;;;;5084494;28;20286;-82
2022/08/14 07:41:32;;;;;;;;;;;30.00;96.30;;;;;;5055598;28;19959;-82
2022/08/14 07:44:02;;;;;;;;;;;30.10;95.30;;;;;;5080292;28;19931;-81
2022/08/14 07:46:36;;;;;;;;;;;30.40;94.20;;;;;;5051548;28;19928;-81
2022/08/14 07:49:28;;;;;;;;;;;30.30;92.30;;;;;;5093310;27;20380;-83
2022/08/14 07:52:21;;;;;;;;;;;30.40;91.60;;;;;;5111261;27;19928;-81
2022/08/14 07:55:19;;;;;;;;;;;30.40;91.70;;;;;;5111852;28;19928;-83
2022/08/14 07:58:51;;;;;;;;;;;30.20;90.80;;;;;;5051954;28;19944;-79
2022/08/14 08:01:52;;;;;;;;;;;30.30;90.80;;;;;;5014179;28;19933;-83
2022/08/14 08:04:45;;;;;;;;;;;30.70;89.00;;;;;;5084138;28;19927;-79
2022/08/14 08:07:20;;;;;;;;;;;30.80;89.80;;;;;;5066809;28;19928;-81
2022/08/14 08:10:40;;;;;;;;;;;30.80;90.00;;;;;;5089876;28;19922;-81
2022/08/14 08:13:44;;;;;;;;;;;30.80;89.60;;;;;;5058056;28;20019;-80
2022/08/14 08:16:37;;;;;;;;;;;31.00;89.40;;;;;;5073891;28;20355;-82
2022/08/14 08:19:38;;;;;;;;;;;31.30;86.60;;;;;;5064128;28;19935;-81
2022/08/14 08:22:52;;;;;;;;;;;31.90;87.00;;;;;;5073447;28;20408;-79
2022/08/14 08:25:46;;;;;;;;;;;32.60;84.80;;;;;;5068651;28;19931;-82
2022/08/14 08:28:57;;;;;;;;;;;33.00;84.10;;;;;;5073599;28;20059;-80
2022/08/14 08:31:44;;;;;;;;;;;33.40;82.20;;;;;;5049674;28;19963;-82
2022/08/14 08:34:14;;;;;;;;;;;;;;;;;;5074431;22;19927;-80
2022/08/14 08:40:22;;;;;;;;;;;33.10;76.80;;;;;;5048715;28;19929;-82
2022/08/14 08:42:51;;;;;;;;;;;32.80;75.90;;;;;;5088502;27;19977;-84
2022/08/14 08:45:22;;;;;;;;;;;32.50;77.30;;;;;;5103847;28;20122;-80
2022/08/14 08:47:49;;;;;;;;;;;32.50;77.90;;;;;;5096120;27;19927;-85
2022/08/14 08:50:30;;;;;;;;;;;32.20;78.40;;;;;;5109268;27;20373;-81
2022/08/14 08:53:00;;;;;;;;;;;32.40;79.40;;;;;;5116390;27;19938;-81
2022/08/14 08:55:26;;;;;;;;;;;32.70;79.50;;;;;;5093149;27;19962;-83
2022/08/14 08:58:03;;;;;;;;;;;32.50;77.60;;;;;;5113113;27;19963;-80
2022/08/14 09:00:32;;;;;;;;;;;32.40;77.00;;;;;;5103272;27;19927;-82
2022/08/14 09:03:04;;;;;;;;;;;32.20;78.30;;;;;;5108999;27;19927;-80
2022/08/14 09:05:48;;;;;;;;;;;32.00;77.60;;;;;;5099978;27;19927;-81
2022/08/14 09:08:25;;;;;;;;;;;31.80;77.50;;;;;;5111750;27;20215;-82
2022/08/14 09:11:18;;;;;;;;;;;31.50;77.70;;;;;;5096637;28;19931;-80
2022/08/14 09:13:50;;;;;;;;;;;31.10;79.10;;;;;;5114132;27;20022;-83
2022/08/14 09:16:25;;;;;;;;;;;30.90;78.90;;;;;;5098226;27;19927;-83
2022/08/14 09:18:51;;;;;;;;;;;30.70;80.20;;;;;;5107114;27;19953;-83
2022/08/14 09:21:18;;;;;;;;;;;30.60;79.00;;;;;;5097609;27;20142;-82
2022/08/14 09:23:44;;;;;;;;;;;30.60;79.80;;;;;;5111767;28;19924;-81
2022/08/14 09:26:10;;;;;;;;;;;30.70;80.60;;;;;;5116863;28;20370;-84
2022/08/14 09:28:36;;;;;;;;;;;30.80;80.90;;;;;;5105092;27;20241;-79
2022/08/14 09:31:03;;;;;;;;;;;30.80;80.00;;;;;;5100962;28;19929;-82
2022/08/14 09:33:29;;;;;;;;;;;30.70;80.20;;;;;;5079948;28;19919;-82
2022/08/14 09:36:14;;;;;;;;;;;30.60;78.90;;;;;;5082867;28;19971;-83
2022/08/14 09:38:52;;;;;;;;;;;30.40;79.80;;;;;;5078937;28;19940;-82
2022/08/14 09:41:34;;;;;;;;;;;30.20;78.70;;;;;;5092097;28;19953;-81
2022/08/14 09:44:07;;;;;;;;;;;30.20;80.20;;;;;;5083337;28;20087;-80
2022/08/14 09:46:34;;;;;;;;;;;30.40;80.40;;;;;;5076521;28;20154;-83
2022/08/14 09:49:19;;;;;;;;;;;30.70;80.40;;;;;;5055956;28;20293;-81
2022/08/14 09:51:45;;;;;;;;;;;30.90;80.50;;;;;;5081390;28;19931;-82
2022/08/14 09:54:12;;;;;;;;;;;31.20;78.30;;;;;;5090268;28;20033;-82
2022/08/14 09:56:48;;;;;;;;;;;31.00;77.20;;;;;;5076992;28;19977;-81
2022/08/14 09:59:16;;;;;;;;;;;30.80;78.60;;;;;;5080144;28;19985;-81
2022/08/14 10:01:43;;;;;;;;;;;30.80;79.80;;;;;;5068275;28;19932;-78
2022/08/14 10:04:19;;;;;;;;;;;31.00;79.40;;;;;;5083157;28;20150;-80
2022/08/14 10:06:46;;;;;;;;;;;30.90;78.00;;;;;;5081456;27;20018;-81
2022/08/14 10:09:15;;;;;;;;;;;31.00;78.30;;;;;;5065202;28;20019;-84
2022/08/14 10:11:44;;;;;;;;;;;31.00;78.10;;;;;;5074312;28;19967;-82
2022/08/14 10:14:20;;;;;;;;;;;31.10;78.30;;;;;;5064736;28;20308;-83
2022/08/14 10:19:56;;;;;;;;;;;31.50;77.20;;;;;;5064761;28;20015;-83
2022/08/14 10:22:32;;;;;;;;;;;31.40;77.00;;;;;;5073879;28;20247;-88
2022/08/14 10:25:08;;;;;;;;;;;31.30;76.70;;;;;;5078996;28;20423;-80
2022/08/14 10:27:34;;;;;;;;;;;31.40;76.90;;;;;;5064680;28;19928;-80
2022/08/14 10:30:13;;;;;;;;;;;31.60;77.50;;;;;;5088737;28;19984;-82
2022/08/14 10:32:43;;;;;;;;;;;31.60;75.70;;;;;;5076202;28;19928;-83
2022/08/14 10:35:12;;;;;;;;;;;31.70;76.30;;;;;;5086264;28;20246;-84
2022/08/14 10:37:39;;;;;;;;;;;31.60;74.70;;;;;;5082581;27;19981;-81
2022/08/14 10:40:07;;;;;;;;;;;31.50;75.40;;;;;;5095618;28;19984;-80
2022/08/14 10:42:37;;;;;;;;;;;31.40;75.00;;;;;;5085185;28;19924;-79
2022/08/14 10:45:03;;;;;;;;;;;31.30;76.00;;;;;;5097176;28;20061;-84
2022/08/14 10:47:34;;;;;;;;;;;31.30;76.10;;;;;;5082006;28;19975;-82
2022/08/14 10:50:00;;;;;;;;;;;31.30;75.40;;;;;;5091326;28;19924;-83
2022/08/14 10:52:34;;;;;;;;;;;31.30;76.50;;;;;;5088432;28;19984;-83
2022/08/14 10:55:07;;;;;;;;;;;31.40;76.30;;;;;;5092711;28;20504;-82
2022/08/14 10:57:45;;;;;;;;;;;31.60;76.50;;;;;;5076683;27;19931;-84
2022/08/14 11:00:28;;;;;;;;;;;31.60;74.60;;;;;;5078403;28;19977;-82
2022/08/14 11:03:03;;;;;;;;;;;31.60;73.30;;;;;;5105043;27;19924;-80
2022/08/14 11:05:43;;;;;;;;;;;31.60;75.00;;;;;;5107707;27;19990;-81
2022/08/14 11:08:09;;;;;;;;;;;31.60;74.40;;;;;;5081790;28;20413;-84
2022/08/14 11:10:41;;;;;;;;;;;31.60;74.10;;;;;;5080515;28;20177;-83
2022/08/14 11:13:07;;;;;;;;;;;31.70;74.50;;;;;;5105798;28;20022;-81
2022/08/14 11:16:17;;;;;;;;;;;31.80;74.00;;;;;;5047953;28;20007;-80
2022/08/14 11:18:44;;;;;;;;;;;31.90;73.60;;;;;;5097654;27;19927;-80
2022/08/14 11:21:13;;;;;;;;;;;31.70;73.70;;;;;;5086693;27;19927;-78
2022/08/14 11:23:39;;;;;;;;;;;31.90;74.40;;;;;;5095930;27;19927;-83
2022/08/14 11:26:09;;;;;;;;;;;32.10;74.00;;;;;;5088582;28;20353;-82
2022/08/14 11:28:37;;;;;;;;;;;32.10;74.00;;;;;;5091228;27;20115;-84
2022/08/14 11:31:05;;;;;;;;;;;32.20;72.50;;;;;;5099586;28;19924;-81
2022/08/14 11:33:33;;;;;;;;;;;32.00;73.00;;;;;;5097340;28;19928;-83
2022/08/14 11:36:00;;;;;;;;;;;32.10;73.50;;;;;;5078886;27;20540;-84
2022/08/14 11:38:44;;;;;;;;;;;32.00;71.90;;;;;;5078690;28;19928;-81
2022/08/14 11:41:10;;;;;;;;;;;31.90;72.50;;;;;;5108448;27;20293;-82
2022/08/14 11:43:41;;;;;;;;;;;32.00;73.20;;;;;;5061052;28;19932;-82
2022/08/14 11:46:11;;;;;;;;;;;32.00;73.10;;;;;;5073085;28;20229;-83
2022/08/14 11:48:47;;;;;;;;;;;32.00;72.40;;;;;;5088278;27;20018;-83
2022/08/14 11:51:14;;;;;;;;;;;32.20;73.70;;;;;;5102074;28;19949;-82
2022/08/14 11:53:42;;;;;;;;;;;32.00;71.90;;;;;;5058649;28;19924;-81
2022/08/14 11:56:11;;;;;;;;;;;32.10;72.20;;;;;;5069383;27;20473;-83
2022/08/14 11:58:48;;;;;;;;;;;32.00;71.20;;;;;;5072850;28;19924;-83
2022/08/14 12:01:25;;;;;;;;;;;32.00;71.50;;;;;;5099206;28;20054;-82
2022/08/14 12:03:55;;;;;;;;;;;32.00;71.30;;;;;;5091480;28;19927;-77
2022/08/14 12:06:51;;;;;;;;;;;32.00;71.80;;;;;;5074350;28;20014;-80
2022/08/14 12:09:28;;;;;;;;;;;31.70;70.80;;;;;;5059594;28;19928;-82
2022/08/14 12:12:09;;;;;;;;;;;;;;;;;;;;;
2022/08/14 12:14:58;;;;;;;;;;;31.30;71.90;;;;;;5083431;28;19928;-81
2022/08/14 12:17:32;;;;;;;;;;;31.30;71.80;;;;;;5087926;28;20402;-81
2022/08/14 12:20:04;;;;;;;;;;;31.30;71.80;;;;;;5063599;28;20437;-81
2022/08/14 12:22:48;;;;;;;;;;;31.30;71.70;;;;;;5091469;28;19924;-84
2022/08/14 12:25:22;;;;;;;;;;;31.10;71.70;;;;;;5097506;28;19977;-84
2022/08/14 12:28:07;;;;;;;;;;;31.00;70.70;;;;;;5087931;28;19928;-84
2022/08/14 12:30:43;;;;;;;;;;;31.10;71.80;;;;;;5101837;28;19928;-80
2022/08/14 12:33:28;;;;;;;;;;;30.90;71.20;;;;;;5065450;28;19920;-83
2022/08/14 12:36:12;;;;;;;;;;;30.80;72.30;;;;;;5097414;28;19939;-83
2022/08/14 12:38:41;;;;;;;;;;;30.90;72.40;;;;;;5105808;28;20095;-83
2022/08/14 12:41:26;;;;;;;;;;;31.00;72.50;;;;;;5081009;28;19931;-84
2022/08/14 12:44:00;;;;;;;;;;;31.10;72.50;;;;;;5088930;28;20294;-85
2022/08/14 12:46:32;;;;;;;;;;;31.20;72.50;;;;;;5080901;28;19928;-84
2022/08/14 12:49:15;;;;;;;;;;;31.20;71.80;;;;;;5099840;28;19931;-81
2022/08/14 12:51:42;;;;;;;;;;;30.80;71.40;;;;;;5064309;28;19963;-83
2022/08/14 12:54:13;;;;;;;;;;;30.70;71.40;;;;;;5094181;28;19927;-81
2022/08/14 12:56:39;;;;;;;;;;;30.60;72.00;;;;;;5082526;28;19968;-80
2022/08/14 12:59:06;;;;;;;;;;;30.40;71.70;;;;;;5075842;28;20016;-80
2022/08/14 13:01:33;;;;;;;;;;;30.40;72.80;;;;;;5080266;28;19934;-80
2022/08/14 13:04:11;;;;;;;;;;;30.50;73.60;;;;;;5092267;28;19927;-82
2022/08/14 13:06:43;;;;;;;;;;;30.60;72.50;;;;;;5089609;28;20374;-80
2022/08/14 13:09:10;;;;;;;;;;;30.60;73.00;;;;;;5084291;28;20043;-81
2022/08/14 13:11:51;;;;;;;;;;;30.70;72.30;;;;;;5072215;28;20432;-82
2022/08/14 13:14:17;;;;;;;;;;;30.80;72.30;;;;;;5056107;28;20372;-79
2022/08/14 13:16:45;;;;;;;;;;;30.80;71.60;;;;;;5089773;28;19946;-82
2022/08/14 13:19:15;;;;;;;;;;;30.80;72.20;;;;;;5090314;28;19927;-83
2022/08/14 13:21:42;;;;;;;;;;;30.70;71.50;;;;;;5089999;28;19923;-81
2022/08/14 13:24:11;;;;;;;;;;;30.70;72.80;;;;;;5072654;28;19992;-84
2022/08/14 13:26:44;;;;;;;;;;;30.60;72.50;;;;;;5072231;28;19928;-83
2022/08/14 13:29:14;;;;;;;;;;;30.50;71.90;;;;;;5090550;28;19924;-83
2022/08/14 13:31:44;;;;;;;;;;;30.40;72.30;;;;;;5074639;28;19931;-83
2022/08/14 13:34:13;;;;;;;;;;;30.50;74.00;;;;;;5076099;28;19924;-81
2022/08/14 13:36:41;;;;;;;;;;;30.50;72.80;;;;;;5159209;22;19935;-80
2022/08/14 13:39:41;;;;;;;;;;;30.40;72.90;;;;;;5080651;28;19970;-83
2022/08/14 13:42:10;;;;;;;;;;;30.40;72.90;;;;;;5058172;28;19986;-83
2022/08/14 13:44:58;;;;;;;;;;;30.20;73.30;;;;;;5059348;28;19981;-83
2022/08/14 13:50:27;;;;;;;;;;;30.00;73.90;;;;;;5058453;28;19925;-80
2022/08/14 13:52:59;;;;;;;;;;;29.90;73.60;;;;;;5084970;28;19940;-81
2022/08/14 13:55:26;;;;;;;;;;;29.90;73.80;;;;;;5068078;28;19924;-81
2022/08/14 13:58:02;;;;;;;;;;;29.80;73.90;;;;;;5051414;28;19928;-80
2022/08/14 14:00:31;;;;;;;;;;;29.90;74.40;;;;;;5058376;28;19939;-88
2022/08/14 14:02:57;;;;;;;;;;;29.90;73.80;;;;;;5065398;28;20397;-80
2022/08/14 14:05:35;;;;;;;;;;;29.90;74.60;;;;;;5092136;28;19925;-81
2022/08/14 14:08:35;;;;;;;;;;;29.70;73.90;;;;;;5096043;28;20062;-83
2022/08/14 14:11:01;;;;;;;;;;;29.80;74.40;;;;;;5038272;28;20306;-82
2022/08/14 14:13:28;;;;;;;;;;;29.70;74.10;;;;;;5035464;28;19932;-83
2022/08/14 14:15:55;;;;;;;;;;;29.70;73.90;;;;;;5051415;28;20287;-79
2022/08/14 14:18:23;;;;;;;;;;;29.70;75.30;;;;;;5069016;28;19940;-80
2022/08/14 14:20:49;;;;;;;;;;;29.70;74.70;;;;;;5069124;28;19924;-87
2022/08/14 14:23:15;;;;;;;;;;;29.60;74.50;;;;;;5086323;28;19928;-83
2022/08/14 14:25:44;;;;;;;;;;;29.50;74.50;;;;;;5081140;28;20073;-84
2022/08/14 14:28:15;;;;;;;;;;;29.50;74.90;;;;;;5056283;28;19954;-83
2022/08/14 14:30:45;;;;;;;;;;;29.40;75.20;;;;;;5084169;28;19939;-81
2022/08/14 14:33:14;;;;;;;;;;;29.40;74.90;;;;;;5051325;28;19931;-83
2022/08/14 14:35:48;;;;;;;;;;;29.50;74.90;;;;;;5036631;28;19928;-83
2022/08/14 14:38:25;;;;;;;;;;;29.40;74.80;;;;;;5084678;28;19940;-84
2022/08/14 14:40:52;;;;;;;;;;;29.40;75.00;;;;;;5084736;28;20002;-82
2022/08/14 14:43:21;;;;;;;;;;;29.40;75.00;;;;;;5053617;28;19971;-84
2022/08/14 14:45:50;;;;;;;;;;;29.40;74.80;;;;;;5083308;28;19932;-79
2022/08/14 14:48:17;;;;;;;;;;;29.30;75.30;;;;;;5076117;28;19977;-82
2022/08/14 14:50:51;;;;;;;;;;;29.30;75.80;;;;;;5085264;28;19932;-82
2022/08/14 14:53:20;;;;;;;;;;;29.30;75.50;;;;;;5068725;28;19929;-87
2022/08/14 14:55:51;;;;;;;;;;;29.20;75.30;;;;;;5039330;28;19929;-84
2022/08/14 14:58:22;;;;;;;;;;;29.20;75.20;;;;;;5052575;28;19929;-82
2022/08/14 15:00:50;;;;;;;;;;;29.20;74.70;;;;;;5084478;28;19924;-86
2022/08/14 15:03:25;;;;;;;;;;;29.20;75.60;;;;;;5037098;28;19936;-81
2022/08/14 15:05:52;;;;;;;;;;;29.30;75.50;;;;;;5031186;28;19928;-81
2022/08/14 15:08:39;;;;;;;;;;;29.40;74.90;;;;;;5065510;28;20224;-82
2022/08/14 15:11:11;;;;;;;;;;;29.40;74.80;;;;;;5036710;28;19931;-80
2022/08/14 15:13:47;;;;;;;;;;;29.50;74.80;;;;;;5030716;28;19925;-82
2022/08/14 15:16:31;;;;;;;;;;;29.50;74.70;;;;;;5032252;28;19932;-85
2022/08/14 15:19:22;;;;;;;;;;;29.50;75.30;;;;;;5053152;28;20305;-80
2022/08/14 15:21:55;;;;;;;;;;;29.50;75.70;;;;;;5085926;28;19972;-81
2022/08/14 15:24:21;;;;;;;;;;;29.60;75.20;;;;;;5036935;28;19975;-82